sensor_id;sensor_type;location;lat;lon;timestamp;P1;durP1;ratioP1;P2;durP2;ratioP2
61572;SDS011;47465;43.094;12.434;2023-07-13T00:00:57;7.10;;;4.07;;
61572;SDS011;47465;43.094;12.434;2023-07-13T00:03:23;11.48;;;4.38;;
61572;SDS011;47465;43.094;12.434;2023-07-13T00:05:57;9.43;;;4.05;;
61572;SDS011;47465;43.094;12.434;2023-07-13T00:08:23;8.77;;;4.28;;
61572;SDS011;47465;43.094;12.434;2023-07-13T00:10:52;10.85;;;4.22;;
61572;SDS011;47465;43.094;12.434;2023-07-13T00:13:21;10.90;;;4.18;;
61572;SDS011;47465;43.094;12.434;2023-07-13T00:15:53;11.15;;;4.53;;
61572;SDS011;47465;43.094;12.434;2023-07-13T00:18:19;13.00;;;4.47;;
61572;SDS011;47465;43.094;12.434;2023-07-13T00:20:48;9.75;;;4.05;;
61572;SDS011;47465;43.094;12.434;2023-07-13T00:23:14;9.25;;;4.40;;
61572;SDS011;47465;43.094;12.434;2023-07-13T00:25:40;9.55;;;4.88;;
61572;SDS011;47465;43.094;12.434;2023-07-13T00:28:10;9.05;;;4.45;;
61572;SDS011;47465;43.094;12.434;2023-07-13T00:30:36;11.73;;;4.78;;
61572;SDS011;47465;43.094;12.434;2023-07-13T00:33:07;7.75;;;4.15;;
61572;SDS011;47465;43.094;12.434;2023-07-13T00:35:35;11.52;;;4.20;;
61572;SDS011;47465;43.094;12.434;2023-07-13T00:38:03;7.77;;;4.27;;
61572;SDS011;47465;43.094;12.434;2023-07-13T00:40:30;12.98;;;5.10;;
61572;SDS011;47465;43.094;12.434;2023-07-13T00:42:58;11.20;;;4.22;;
61572;SDS011;47465;43.094;12.434;2023-07-13T00:48:34;10.85;;;4.20;;
61572;SDS011;47465;43.094;12.434;2023-07-13T00:51:06;9.18;;;4.00;;
61572;SDS011;47465;43.094;12.434;2023-07-13T00:53:34;13.85;;;6.40;;
61572;SDS011;47465;43.094;12.434;2023-07-13T00:56:00;10.52;;;4.13;;
61572;SDS011;47465;43.094;12.434;2023-07-13T00:58:30;11.65;;;4.57;;
61572;SDS011;47465;43.094;12.434;2023-07-13T01:01:04;10.80;;;4.70;;
61572;SDS011;47465;43.094;12.434;2023-07-13T01:03:30;10.77;;;4.28;;
61572;SDS011;47465;43.094;12.434;2023-07-13T01:06:03;9.05;;;4.50;;
61572;SDS011;47465;43.094;12.434;2023-07-13T01:08:29;9.07;;;4.13;;
61572;SDS011;47465;43.094;12.434;2023-07-13T01:10:58;10.65;;;4.22;;
61572;SDS011;47465;43.094;12.434;2023-07-13T01:13:25;10.73;;;5.13;;
61572;SDS011;47465;43.094;12.434;2023-07-13T01:15:55;8.43;;;3.90;;
61572;SDS011;47465;43.094;12.434;2023-07-13T01:18:28;6.50;;;4.07;;
61572;SDS011;47465;43.094;12.434;2023-07-13T01:21:07;8.73;;;4.55;;
61572;SDS011;47465;43.094;12.434;2023-07-13T01:23:36;16.55;;;4.65;;
61572;SDS011;47465;43.094;12.434;2023-07-13T01:26:04;7.93;;;4.15;;
61572;SDS011;47465;43.094;12.434;2023-07-13T01:28:35;6.63;;;4.05;;
61572;SDS011;47465;43.094;12.434;2023-07-13T01:31:04;7.90;;;3.78;;
61572;SDS011;47465;43.094;12.434;2023-07-13T01:33:35;13.68;;;4.80;;
61572;SDS011;47465;43.094;12.434;2023-07-13T01:36:03;7.68;;;4.00;;
61572;SDS011;47465;43.094;12.434;2023-07-13T01:38:36;9.77;;;4.20;;
61572;SDS011;47465;43.094;12.434;2023-07-13T01:41:06;9.45;;;4.88;;
61572;SDS011;47465;43.094;12.434;2023-07-13T01:43:36;10.95;;;4.20;;
61572;SDS011;47465;43.094;12.434;2023-07-13T01:46:02;10.63;;;4.30;;
61572;SDS011;47465;43.094;12.434;2023-07-13T01:48:28;9.82;;;4.07;;
61572;SDS011;47465;43.094;12.434;2023-07-13T01:50:54;8.10;;;4.28;;
61572;SDS011;47465;43.094;12.434;2023-07-13T01:53:20;8.07;;;4.28;;
61572;SDS011;47465;43.094;12.434;2023-07-13T01:55:48;9.07;;;5.32;;
61572;SDS011;47465;43.094;12.434;2023-07-13T01:58:17;7.95;;;4.20;;
61572;SDS011;47465;43.094;12.434;2023-07-13T02:00:43;10.07;;;4.20;;
61572;SDS011;47465;43.094;12.434;2023-07-13T02:03:09;8.23;;;3.95;;
61572;SDS011;47465;43.094;12.434;2023-07-13T02:05:36;11.70;;;4.80;;
61572;SDS011;47465;43.094;12.434;2023-07-13T02:08:02;11.63;;;4.28;;
61572;SDS011;47465;43.094;12.434;2023-07-13T02:10:31;10.20;;;3.92;;
61572;SDS011;47465;43.094;12.434;2023-07-13T02:16:07;7.83;;;4.03;;
61572;SDS011;47465;43.094;12.434;2023-07-13T02:18:37;7.95;;;4.30;;
61572;SDS011;47465;43.094;12.434;2023-07-13T02:21:06;9.93;;;5.03;;
61572;SDS011;47465;43.094;12.434;2023-07-13T02:23:35;8.00;;;4.00;;
61572;SDS011;47465;43.094;12.434;2023-07-13T02:26:03;8.02;;;3.70;;
61572;SDS011;47465;43.094;12.434;2023-07-13T02:28:31;11.00;;;4.88;;
61572;SDS011;47465;43.094;12.434;2023-07-13T02:31:03;10.20;;;4.38;;
61572;SDS011;47465;43.094;12.434;2023-07-13T02:33:34;9.13;;;4.32;;
61572;SDS011;47465;43.094;12.434;2023-07-13T02:36:03;9.13;;;4.35;;
61572;SDS011;47465;43.094;12.434;2023-07-13T02:38:32;6.57;;;4.00;;
61572;SDS011;47465;43.094;12.434;2023-07-13T02:41:01;9.25;;;4.10;;
61572;SDS011;47465;43.094;12.434;2023-07-13T02:43:34;8.23;;;4.32;;
61572;SDS011;47465;43.094;12.434;2023-07-13T02:46:01;9.27;;;4.45;;
61572;SDS011;47465;43.094;12.434;2023-07-13T02:48:32;10.73;;;4.72;;
61572;SDS011;47465;43.094;12.434;2023-07-13T02:50:58;6.57;;;3.92;;
61572;SDS011;47465;43.094;12.434;2023-07-13T02:53:25;9.77;;;4.35;;
61572;SDS011;47465;43.094;12.434;2023-07-13T02:55:52;12.55;;;4.65;;
61572;SDS011;47465;43.094;12.434;2023-07-13T02:58:20;9.80;;;4.32;;
61572;SDS011;47465;43.094;12.434;2023-07-13T03:00:48;10.77;;;4.60;;
61572;SDS011;47465;43.094;12.434;2023-07-13T03:03:19;9.43;;;4.00;;
61572;SDS011;47465;43.094;12.434;2023-07-13T03:05:46;8.80;;;4.30;;
61572;SDS011;47465;43.094;12.434;2023-07-13T03:08:17;7.38;;;4.18;;
61572;SDS011;47465;43.094;12.434;2023-07-13T03:10:43;9.98;;;4.18;;
61572;SDS011;47465;43.094;12.434;2023-07-13T03:13:12;8.15;;;4.13;;
61572;SDS011;47465;43.094;12.434;2023-07-13T03:15:38;9.00;;;4.03;;
61572;SDS011;47465;43.094;12.434;2023-07-13T03:18:06;8.30;;;4.20;;
61572;SDS011;47465;43.094;12.434;2023-07-13T03:20:32;7.95;;;4.10;;
61572;SDS011;47465;43.094;12.434;2023-07-13T03:22:59;7.70;;;4.20;;
61572;SDS011;47465;43.094;12.434;2023-07-13T03:25:28;8.63;;;4.45;;
61572;SDS011;47465;43.094;12.434;2023-07-13T03:27:54;12.20;;;4.20;;
61572;SDS011;47465;43.094;12.434;2023-07-13T03:30:20;8.52;;;3.90;;
61572;SDS011;47465;43.094;12.434;2023-07-13T03:32:47;12.45;;;4.28;;
61572;SDS011;47465;43.094;12.434;2023-07-13T03:35:15;9.82;;;4.00;;
61572;SDS011;47465;43.094;12.434;2023-07-13T03:37:41;8.52;;;4.30;;
61572;SDS011;47465;43.094;12.434;2023-07-13T03:40:11;8.18;;;4.05;;
61572;SDS011;47465;43.094;12.434;2023-07-13T03:42:40;7.38;;;4.10;;
61572;SDS011;47465;43.094;12.434;2023-07-13T03:45:08;8.38;;;3.92;;
61572;SDS011;47465;43.094;12.434;2023-07-13T03:50:02;8.63;;;4.10;;
61572;SDS011;47465;43.094;12.434;2023-07-13T03:52:33;8.70;;;3.90;;
61572;SDS011;47465;43.094;12.434;2023-07-13T03:55:02;8.77;;;4.20;;
61572;SDS011;47465;43.094;12.434;2023-07-13T03:57:34;9.85;;;4.25;;
61572;SDS011;47465;43.094;12.434;2023-07-13T04:00:03;8.50;;;4.00;;
61572;SDS011;47465;43.094;12.434;2023-07-13T04:02:33;8.88;;;4.25;;
61572;SDS011;47465;43.094;12.434;2023-07-13T04:05:04;9.40;;;4.10;;
61572;SDS011;47465;43.094;12.434;2023-07-13T04:07:35;8.65;;;3.63;;
61572;SDS011;47465;43.094;12.434;2023-07-13T04:10:04;8.25;;;4.38;;
61572;SDS011;47465;43.094;12.434;2023-07-13T04:12:31;9.63;;;4.20;;
61572;SDS011;47465;43.094;12.434;2023-07-13T04:15:00;9.88;;;4.03;;
61572;SDS011;47465;43.094;12.434;2023-07-13T04:17:30;8.23;;;4.07;;
61572;SDS011;47465;43.094;12.434;2023-07-13T04:19:56;7.05;;;4.40;;
61572;SDS011;47465;43.094;12.434;2023-07-13T04:22:22;7.60;;;4.25;;
61572;SDS011;47465;43.094;12.434;2023-07-13T04:24:50;9.40;;;4.00;;
61572;SDS011;47465;43.094;12.434;2023-07-13T04:27:17;6.68;;;3.95;;
61572;SDS011;47465;43.094;12.434;2023-07-13T04:32:13;7.55;;;4.22;;
61572;SDS011;47465;43.094;12.434;2023-07-13T04:34:39;12.23;;;4.43;;
61572;SDS011;47465;43.094;12.434;2023-07-13T04:37:08;6.28;;;3.78;;
61572;SDS011;47465;43.094;12.434;2023-07-13T04:39:34;8.48;;;4.20;;
61572;SDS011;47465;43.094;12.434;2023-07-13T04:42:02;8.85;;;4.45;;
61572;SDS011;47465;43.094;12.434;2023-07-13T04:44:34;7.90;;;4.32;;
61572;SDS011;47465;43.094;12.434;2023-07-13T04:47:00;8.45;;;4.30;;
61572;SDS011;47465;43.094;12.434;2023-07-13T04:49:29;8.38;;;4.07;;
61572;SDS011;47465;43.094;12.434;2023-07-13T04:52:00;8.85;;;4.60;;
61572;SDS011;47465;43.094;12.434;2023-07-13T04:54:29;7.93;;;4.55;;
61572;SDS011;47465;43.094;12.434;2023-07-13T04:56:55;6.65;;;4.15;;
61572;SDS011;47465;43.094;12.434;2023-07-13T04:59:23;7.20;;;4.07;;
61572;SDS011;47465;43.094;12.434;2023-07-13T05:01:52;10.50;;;4.30;;
61572;SDS011;47465;43.094;12.434;2023-07-13T05:04:21;11.93;;;4.50;;
61572;SDS011;47465;43.094;12.434;2023-07-13T05:06:47;9.38;;;4.15;;
61572;SDS011;47465;43.094;12.434;2023-07-13T05:09:16;10.07;;;4.00;;
61572;SDS011;47465;43.094;12.434;2023-07-13T05:11:44;9.88;;;3.92;;
61572;SDS011;47465;43.094;12.434;2023-07-13T05:14:13;11.50;;;4.32;;
61572;SDS011;47465;43.094;12.434;2023-07-13T05:16:44;8.45;;;3.97;;
61572;SDS011;47465;43.094;12.434;2023-07-13T05:19:10;9.40;;;4.07;;
61572;SDS011;47465;43.094;12.434;2023-07-13T05:21:37;8.38;;;3.90;;
61572;SDS011;47465;43.094;12.434;2023-07-13T05:24:03;11.55;;;4.78;;
61572;SDS011;47465;43.094;12.434;2023-07-13T05:26:33;10.48;;;5.00;;
61572;SDS011;47465;43.094;12.434;2023-07-13T05:31:27;8.20;;;4.15;;
61572;SDS011;47465;43.094;12.434;2023-07-13T05:33:55;7.60;;;4.22;;
61572;SDS011;47465;43.094;12.434;2023-07-13T05:36:21;9.97;;;4.63;;
61572;SDS011;47465;43.094;12.434;2023-07-13T05:38:47;9.65;;;4.50;;
61572;SDS011;47465;43.094;12.434;2023-07-13T05:41:13;8.77;;;4.47;;
61572;SDS011;47465;43.094;12.434;2023-07-13T05:43:41;10.10;;;4.85;;
61572;SDS011;47465;43.094;12.434;2023-07-13T05:46:07;8.98;;;4.50;;
61572;SDS011;47465;43.094;12.434;2023-07-13T05:48:33;8.15;;;4.30;;
61572;SDS011;47465;43.094;12.434;2023-07-13T05:51:02;7.95;;;4.15;;
61572;SDS011;47465;43.094;12.434;2023-07-13T05:53:28;13.65;;;4.60;;
61572;SDS011;47465;43.094;12.434;2023-07-13T05:55:54;12.50;;;4.53;;
61572;SDS011;47465;43.094;12.434;2023-07-13T05:58:21;8.00;;;4.15;;
61572;SDS011;47465;43.094;12.434;2023-07-13T06:00:47;11.52;;;4.22;;
61572;SDS011;47465;43.094;12.434;2023-07-13T06:03:22;8.43;;;4.63;;
61572;SDS011;47465;43.094;12.434;2023-07-13T06:05:51;12.13;;;4.60;;
61572;SDS011;47465;43.094;12.434;2023-07-13T06:11:18;8.27;;;4.43;;
61572;SDS011;47465;43.094;12.434;2023-07-13T06:13:56;10.70;;;5.18;;
61572;SDS011;47465;43.094;12.434;2023-07-13T06:16:29;11.25;;;4.90;;
61572;SDS011;47465;43.094;12.434;2023-07-13T06:19:07;8.60;;;4.47;;
61572;SDS011;47465;43.094;12.434;2023-07-13T06:22:09;10.75;;;4.75;;
61572;SDS011;47465;43.094;12.434;2023-07-13T06:24:39;7.22;;;4.10;;
61572;SDS011;47465;43.094;12.434;2023-07-13T06:27:11;11.23;;;4.60;;
61572;SDS011;47465;43.094;12.434;2023-07-13T06:29:55;6.95;;;4.25;;
61572;SDS011;47465;43.094;12.434;2023-07-13T06:32:26;9.20;;;4.68;;
61572;SDS011;47465;43.094;12.434;2023-07-13T06:35:18;7.68;;;4.57;;
61572;SDS011;47465;43.094;12.434;2023-07-13T06:38:03;9.65;;;4.10;;
61572;SDS011;47465;43.094;12.434;2023-07-13T06:40:51;8.70;;;4.47;;
61572;SDS011;47465;43.094;12.434;2023-07-13T06:43:22;6.95;;;4.22;;
61572;SDS011;47465;43.094;12.434;2023-07-13T06:45:59;10.15;;;4.75;;
61572;SDS011;47465;43.094;12.434;2023-07-13T06:48:26;8.93;;;4.57;;
61572;SDS011;47465;43.094;12.434;2023-07-13T06:50:55;8.20;;;4.40;;
61572;SDS011;47465;43.094;12.434;2023-07-13T06:53:28;7.13;;;4.70;;
61572;SDS011;47465;43.094;12.434;2023-07-13T06:55:56;13.02;;;5.70;;
61572;SDS011;47465;43.094;12.434;2023-07-13T06:58:22;10.23;;;4.95;;
61572;SDS011;47465;43.094;12.434;2023-07-13T07:00:59;8.20;;;4.93;;
61572;SDS011;47465;43.094;12.434;2023-07-13T07:03:25;8.57;;;4.10;;
61572;SDS011;47465;43.094;12.434;2023-07-13T07:05:51;7.20;;;4.50;;
61572;SDS011;47465;43.094;12.434;2023-07-13T07:08:21;6.38;;;4.60;;
61572;SDS011;47465;43.094;12.434;2023-07-13T07:10:47;7.95;;;4.45;;
61572;SDS011;47465;43.094;12.434;2023-07-13T07:13:18;9.80;;;4.18;;
61572;SDS011;47465;43.094;12.434;2023-07-13T07:15:47;13.73;;;4.83;;
61572;SDS011;47465;43.094;12.434;2023-07-13T07:18:20;7.25;;;4.65;;
61572;SDS011;47465;43.094;12.434;2023-07-13T07:20:46;9.23;;;4.07;;
61572;SDS011;47465;43.094;12.434;2023-07-13T07:23:37;10.40;;;4.55;;
61572;SDS011;47465;43.094;12.434;2023-07-13T07:26:17;8.13;;;4.78;;
61572;SDS011;47465;43.094;12.434;2023-07-13T07:31:40;5.82;;;4.50;;
61572;SDS011;47465;43.094;12.434;2023-07-13T07:34:09;6.95;;;4.30;;
61572;SDS011;47465;43.094;12.434;2023-07-13T07:36:58;12.45;;;4.40;;
61572;SDS011;47465;43.094;12.434;2023-07-13T07:43:42;10.95;;;4.85;;
61572;SDS011;47465;43.094;12.434;2023-07-13T07:46:21;7.70;;;4.30;;
61572;SDS011;47465;43.094;12.434;2023-07-13T07:49:02;10.23;;;4.38;;
61572;SDS011;47465;43.094;12.434;2023-07-13T07:52:03;8.90;;;4.07;;
61572;SDS011;47465;43.094;12.434;2023-07-13T07:54:49;7.40;;;4.00;;
61572;SDS011;47465;43.094;12.434;2023-07-13T07:57:29;9.43;;;4.07;;
61572;SDS011;47465;43.094;12.434;2023-07-13T08:00:42;10.48;;;4.90;;
61572;SDS011;47465;43.094;12.434;2023-07-13T08:03:32;11.82;;;4.38;;
61572;SDS011;47465;43.094;12.434;2023-07-13T08:06:03;15.90;;;4.95;;
61572;SDS011;47465;43.094;12.434;2023-07-13T08:08:51;14.43;;;4.65;;
61572;SDS011;47465;43.094;12.434;2023-07-13T08:14:54;9.13;;;4.25;;
61572;SDS011;47465;43.094;12.434;2023-07-13T08:17:42;10.13;;;4.57;;
61572;SDS011;47465;43.094;12.434;2023-07-13T08:27:00;10.85;;;4.40;;
61572;SDS011;47465;43.094;12.434;2023-07-13T08:32:45;12.82;;;4.90;;
61572;SDS011;47465;43.094;12.434;2023-07-13T08:36:22;11.82;;;4.50;;
61572;SDS011;47465;43.094;12.434;2023-07-13T08:39:00;10.73;;;4.70;;
61572;SDS011;47465;43.094;12.434;2023-07-13T08:41:54;7.00;;;3.70;;
61572;SDS011;47465;43.094;12.434;2023-07-13T08:56:13;7.93;;;4.28;;
61572;SDS011;47465;43.094;12.434;2023-07-13T09:57:02;8.48;;;4.60;;
61572;SDS011;47465;43.094;12.434;2023-07-13T10:00:18;8.25;;;4.75;;
61572;SDS011;47465;43.094;12.434;2023-07-13T10:03:23;11.90;;;4.53;;
61572;SDS011;47465;43.094;12.434;2023-07-13T10:06:57;10.75;;;4.53;;
61572;SDS011;47465;43.094;12.434;2023-07-13T10:10:14;11.00;;;4.72;;
61572;SDS011;47465;43.094;12.434;2023-07-13T10:12:43;9.02;;;5.00;;
61572;SDS011;47465;43.094;12.434;2023-07-13T10:15:19;6.45;;;4.47;;
61572;SDS011;47465;43.094;12.434;2023-07-13T10:30:09;7.38;;;4.63;;
61572;SDS011;47465;43.094;12.434;2023-07-13T10:46:12;9.18;;;5.40;;
61572;SDS011;47465;43.094;12.434;2023-07-13T10:49:03;12.35;;;4.88;;
61572;SDS011;47465;43.094;12.434;2023-07-13T10:59:23;11.05;;;5.78;;
61572;SDS011;47465;43.094;12.434;2023-07-13T11:05:17;10.20;;;5.75;;
61572;SDS011;47465;43.094;12.434;2023-07-13T11:08:16;14.05;;;5.18;;
61572;SDS011;47465;43.094;12.434;2023-07-13T11:10:50;12.48;;;5.20;;
61572;SDS011;47465;43.094;12.434;2023-07-13T11:16:35;11.50;;;5.32;;
61572;SDS011;47465;43.094;12.434;2023-07-13T11:19:26;11.85;;;6.15;;
61572;SDS011;47465;43.094;12.434;2023-07-13T11:25:38;10.02;;;5.88;;
61572;SDS011;47465;43.094;12.434;2023-07-13T11:30:43;12.53;;;5.87;;
61572;SDS011;47465;43.094;12.434;2023-07-13T11:33:54;11.38;;;5.70;;
61572;SDS011;47465;43.094;12.434;2023-07-13T11:37:15;13.23;;;5.85;;
61572;SDS011;47465;43.094;12.434;2023-07-13T11:40:21;13.85;;;6.35;;
61572;SDS011;47465;43.094;12.434;2023-07-13T11:43:11;11.45;;;6.07;;
61572;SDS011;47465;43.094;12.434;2023-07-13T11:46:02;12.93;;;6.05;;
61572;SDS011;47465;43.094;12.434;2023-07-13T11:48:46;10.60;;;5.90;;
61572;SDS011;47465;43.094;12.434;2023-07-13T12:07:03;16.30;;;7.13;;
61572;SDS011;47465;43.094;12.434;2023-07-13T12:20:23;10.27;;;5.82;;
61572;SDS011;47465;43.094;12.434;2023-07-13T12:23:34;16.08;;;6.93;;
61572;SDS011;47465;43.094;12.434;2023-07-13T12:26:24;12.23;;;6.80;;
61572;SDS011;47465;43.094;12.434;2023-07-13T12:34:10;17.20;;;6.57;;
61572;SDS011;47465;43.094;12.434;2023-07-13T13:41:54;17.30;;;7.20;;
61572;SDS011;47465;43.094;12.434;2023-07-13T13:44:31;16.30;;;6.93;;
61572;SDS011;47465;43.094;12.434;2023-07-13T13:46:59;16.33;;;7.25;;
61572;SDS011;47465;43.094;12.434;2023-07-13T13:49:29;15.13;;;7.25;;
61572;SDS011;47465;43.094;12.434;2023-07-13T13:51:58;16.20;;;7.68;;
61572;SDS011;47465;43.094;12.434;2023-07-13T13:54:34;16.95;;;7.32;;
61572;SDS011;47465;43.094;12.434;2023-07-13T13:57:21;18.50;;;7.65;;
61572;SDS011;47465;43.094;12.434;2023-07-13T14:00:01;16.20;;;7.15;;
61572;SDS011;47465;43.094;12.434;2023-07-13T14:02:32;18.80;;;7.90;;
61572;SDS011;47465;43.094;12.434;2023-07-13T14:05:22;16.10;;;7.57;;
61572;SDS011;47465;43.094;12.434;2023-07-13T14:07:58;17.23;;;7.53;;
61572;SDS011;47465;43.094;12.434;2023-07-13T14:10:57;13.75;;;7.70;;
61572;SDS011;47465;43.094;12.434;2023-07-13T14:13:25;20.02;;;8.20;;
61572;SDS011;47465;43.094;12.434;2023-07-13T14:18:48;16.75;;;7.70;;
61572;SDS011;47465;43.094;12.434;2023-07-13T14:21:16;15.20;;;8.07;;
61572;SDS011;47465;43.094;12.434;2023-07-13T14:23:51;18.33;;;8.25;;
61572;SDS011;47465;43.094;12.434;2023-07-13T14:26:39;15.68;;;7.55;;
61572;SDS011;47465;43.094;12.434;2023-07-13T14:40:46;21.05;;;8.15;;
61572;SDS011;47465;43.094;12.434;2023-07-13T14:53:43;21.45;;;8.85;;
61572;SDS011;47465;43.094;12.434;2023-07-13T15:07:32;20.33;;;8.73;;
61572;SDS011;47465;43.094;12.434;2023-07-13T15:13:12;23.42;;;9.15;;
61572;SDS011;47465;43.094;12.434;2023-07-13T15:47:17;26.23;;;9.10;;
61572;SDS011;47465;43.094;12.434;2023-07-13T16:11:50;25.00;;;9.82;;
61572;SDS011;47465;43.094;12.434;2023-07-13T16:22:33;22.73;;;9.80;;
61572;SDS011;47465;43.094;12.434;2023-07-13T16:25:24;22.88;;;9.70;;
61572;SDS011;47465;43.094;12.434;2023-07-13T16:28:09;25.08;;;9.98;;
61572;SDS011;47465;43.094;12.434;2023-07-13T16:31:49;23.67;;;9.93;;
61572;SDS011;47465;43.094;12.434;2023-07-13T16:34:37;24.88;;;10.77;;
61572;SDS011;47465;43.094;12.434;2023-07-13T16:37:37;29.95;;;10.65;;
61572;SDS011;47465;43.094;12.434;2023-07-13T16:40:39;24.40;;;10.60;;
61572;SDS011;47465;43.094;12.434;2023-07-13T16:45:58;27.63;;;10.50;;
61572;SDS011;47465;43.094;12.434;2023-07-13T16:48:35;22.75;;;10.15;;
61572;SDS011;47465;43.094;12.434;2023-07-13T16:51:41;21.42;;;10.13;;
61572;SDS011;47465;43.094;12.434;2023-07-13T16:54:08;24.50;;;11.00;;
61572;SDS011;47465;43.094;12.434;2023-07-13T16:56:34;27.10;;;10.32;;
61572;SDS011;47465;43.094;12.434;2023-07-13T16:59:12;27.45;;;10.27;;
61572;SDS011;47465;43.094;12.434;2023-07-13T17:01:42;29.08;;;11.23;;
61572;SDS011;47465;43.094;12.434;2023-07-13T17:04:11;22.77;;;10.82;;
61572;SDS011;47465;43.094;12.434;2023-07-13T17:07:01;22.73;;;10.55;;
61572;SDS011;47465;43.094;12.434;2023-07-13T17:09:33;23.27;;;10.38;;
61572;SDS011;47465;43.094;12.434;2023-07-13T17:12:00;23.73;;;12.00;;
61572;SDS011;47465;43.094;12.434;2023-07-13T17:14:30;27.77;;;11.05;;
61572;SDS011;47465;43.094;12.434;2023-07-13T17:17:01;23.83;;;10.98;;
61572;SDS011;47465;43.094;12.434;2023-07-13T17:19:39;30.40;;;11.10;;
61572;SDS011;47465;43.094;12.434;2023-07-13T17:22:06;29.40;;;10.80;;
61572;SDS011;47465;43.094;12.434;2023-07-13T17:24:47;26.70;;;10.98;;
61572;SDS011;47465;43.094;12.434;2023-07-13T17:27:22;28.13;;;11.02;;
61572;SDS011;47465;43.094;12.434;2023-07-13T17:29:54;26.30;;;11.25;;
61572;SDS011;47465;43.094;12.434;2023-07-13T17:32:22;24.05;;;11.55;;
61572;SDS011;47465;43.094;12.434;2023-07-13T17:35:15;27.67;;;11.73;;
61572;SDS011;47465;43.094;12.434;2023-07-13T17:38:12;31.23;;;12.98;;
61572;SDS011;47465;43.094;12.434;2023-07-13T17:41:16;28.58;;;11.75;;
61572;SDS011;47465;43.094;12.434;2023-07-13T17:43:46;30.27;;;11.75;;
61572;SDS011;47465;43.094;12.434;2023-07-13T17:46:24;22.80;;;12.23;;
61572;SDS011;47465;43.094;12.434;2023-07-13T17:48:59;25.45;;;12.05;;
61572;SDS011;47465;43.094;12.434;2023-07-13T17:51:28;22.45;;;10.52;;
61572;SDS011;47465;43.094;12.434;2023-07-13T17:53:54;29.92;;;12.25;;
61572;SDS011;47465;43.094;12.434;2023-07-13T17:56:21;29.30;;;11.63;;
61572;SDS011;47465;43.094;12.434;2023-07-13T17:58:54;27.80;;;11.65;;
61572;SDS011;47465;43.094;12.434;2023-07-13T18:01:20;30.15;;;12.00;;
61572;SDS011;47465;43.094;12.434;2023-07-13T18:22:01;36.30;;;13.63;;
61572;SDS011;47465;43.094;12.434;2023-07-13T18:25:10;31.85;;;12.98;;
61572;SDS011;47465;43.094;12.434;2023-07-13T18:28:02;29.38;;;13.20;;
61572;SDS011;47465;43.094;12.434;2023-07-13T18:34:08;28.35;;;12.75;;
61572;SDS011;47465;43.094;12.434;2023-07-13T18:36:37;34.42;;;13.10;;
61572;SDS011;47465;43.094;12.434;2023-07-13T18:39:04;32.60;;;13.13;;
61572;SDS011;47465;43.094;12.434;2023-07-13T18:41:31;28.65;;;12.82;;
61572;SDS011;47465;43.094;12.434;2023-07-13T18:47:37;36.58;;;13.45;;
61572;SDS011;47465;43.094;12.434;2023-07-13T18:50:13;33.13;;;13.82;;
61572;SDS011;47465;43.094;12.434;2023-07-13T18:53:13;27.95;;;12.98;;
61572;SDS011;47465;43.094;12.434;2023-07-13T18:55:46;35.00;;;13.40;;
61572;SDS011;47465;43.094;12.434;2023-07-13T18:58:18;34.70;;;13.65;;
61572;SDS011;47465;43.094;12.434;2023-07-13T19:00:49;28.67;;;13.25;;
61572;SDS011;47465;43.094;12.434;2023-07-13T19:06:47;31.80;;;13.43;;
61572;SDS011;47465;43.094;12.434;2023-07-13T19:09:19;25.85;;;12.57;;
61572;SDS011;47465;43.094;12.434;2023-07-13T19:11:45;30.00;;;13.45;;
61572;SDS011;47465;43.094;12.434;2023-07-13T19:14:35;27.60;;;12.95;;
61572;SDS011;47465;43.094;12.434;2023-07-13T19:17:26;30.48;;;13.18;;
61572;SDS011;47465;43.094;12.434;2023-07-13T19:19:53;27.75;;;13.30;;
61572;SDS011;47465;43.094;12.434;2023-07-13T19:22:22;34.70;;;13.05;;
61572;SDS011;47465;43.094;12.434;2023-07-13T19:24:52;35.08;;;14.57;;
61572;SDS011;47465;43.094;12.434;2023-07-13T19:27:31;32.80;;;13.13;;
61572;SDS011;47465;43.094;12.434;2023-07-13T19:30:08;36.83;;;13.30;;
61572;SDS011;47465;43.094;12.434;2023-07-13T19:32:36;32.60;;;13.40;;
61572;SDS011;47465;43.094;12.434;2023-07-13T19:35:09;28.52;;;13.10;;
61572;SDS011;47465;43.094;12.434;2023-07-13T19:37:35;27.33;;;13.18;;
61572;SDS011;47465;43.094;12.434;2023-07-13T19:40:14;26.67;;;13.20;;
61572;SDS011;47465;43.094;12.434;2023-07-13T19:43:00;34.33;;;14.18;;
61572;SDS011;47465;43.094;12.434;2023-07-13T19:45:35;27.20;;;13.75;;
61572;SDS011;47465;43.094;12.434;2023-07-13T19:48:10;28.45;;;12.50;;
61572;SDS011;47465;43.094;12.434;2023-07-13T19:50:37;35.13;;;14.07;;
61572;SDS011;47465;43.094;12.434;2023-07-13T19:53:19;36.42;;;14.35;;
61572;SDS011;47465;43.094;12.434;2023-07-13T19:55:46;32.60;;;13.55;;
61572;SDS011;47465;43.094;12.434;2023-07-13T19:58:12;26.27;;;13.43;;
61572;SDS011;47465;43.094;12.434;2023-07-13T20:00:42;25.35;;;13.45;;
61572;SDS011;47465;43.094;12.434;2023-07-13T20:03:19;34.67;;;13.95;;
61572;SDS011;47465;43.094;12.434;2023-07-13T20:05:54;30.05;;;13.40;;
61572;SDS011;47465;43.094;12.434;2023-07-13T20:08:25;31.58;;;13.57;;
61572;SDS011;47465;43.094;12.434;2023-07-13T20:10:55;36.47;;;14.43;;
61572;SDS011;47465;43.094;12.434;2023-07-13T20:13:21;30.35;;;13.82;;
61572;SDS011;47465;43.094;12.434;2023-07-13T20:15:49;31.50;;;13.30;;
61572;SDS011;47465;43.094;12.434;2023-07-13T20:18:20;36.58;;;14.60;;
61572;SDS011;47465;43.094;12.434;2023-07-13T20:20:46;29.02;;;13.50;;
61572;SDS011;47465;43.094;12.434;2023-07-13T20:23:14;26.17;;;13.52;;
61572;SDS011;47465;43.094;12.434;2023-07-13T20:25:45;30.05;;;13.73;;
61572;SDS011;47465;43.094;12.434;2023-07-13T20:28:14;32.22;;;15.07;;
61572;SDS011;47465;43.094;12.434;2023-07-13T20:30:47;26.63;;;12.95;;
61572;SDS011;47465;43.094;12.434;2023-07-13T20:33:14;30.08;;;14.10;;
61572;SDS011;47465;43.094;12.434;2023-07-13T20:39:14;32.08;;;14.02;;
61572;SDS011;47465;43.094;12.434;2023-07-13T20:41:52;34.22;;;14.43;;
61572;SDS011;47465;43.094;12.434;2023-07-13T20:44:28;30.00;;;14.10;;
61572;SDS011;47465;43.094;12.434;2023-07-13T20:46:56;31.02;;;14.15;;
61572;SDS011;47465;43.094;12.434;2023-07-13T20:49:28;33.00;;;14.98;;
61572;SDS011;47465;43.094;12.434;2023-07-13T20:52:00;30.98;;;13.60;;
61572;SDS011;47465;43.094;12.434;2023-07-13T20:54:27;36.28;;;15.38;;
61572;SDS011;47465;43.094;12.434;2023-07-13T20:57:13;31.35;;;13.93;;
61572;SDS011;47465;43.094;12.434;2023-07-13T20:59:40;29.75;;;14.13;;
61572;SDS011;47465;43.094;12.434;2023-07-13T21:02:21;33.00;;;14.52;;
61572;SDS011;47465;43.094;12.434;2023-07-13T21:04:56;34.05;;;14.32;;
61572;SDS011;47465;43.094;12.434;2023-07-13T21:07:38;28.55;;;15.10;;
61572;SDS011;47465;43.094;12.434;2023-07-13T21:13:20;29.48;;;15.57;;
61572;SDS011;47465;43.094;12.434;2023-07-13T21:15:49;35.65;;;15.52;;
61572;SDS011;47465;43.094;12.434;2023-07-13T21:18:16;30.77;;;14.30;;
61572;SDS011;47465;43.094;12.434;2023-07-13T21:20:47;36.30;;;15.65;;
61572;SDS011;47465;43.094;12.434;2023-07-13T21:23:23;30.25;;;14.40;;
61572;SDS011;47465;43.094;12.434;2023-07-13T21:25:53;33.17;;;15.00;;
61572;SDS011;47465;43.094;12.434;2023-07-13T21:28:35;29.77;;;15.30;;
61572;SDS011;47465;43.094;12.434;2023-07-13T21:31:06;43.58;;;15.70;;
61572;SDS011;47465;43.094;12.434;2023-07-13T21:33:48;30.13;;;15.13;;